sensor_id;sensor_type;location;lat;lon;timestamp;pressure;altitude;pressure_sealevel;temperature;humidity
67803;BME280;54601;51.378;-1.342;2023-02-15T00:01:32;101215.21;;;19.28;31.11
67803;BME280;54601;51.378;-1.342;2023-02-15T00:03:57;101213.03;;;19.69;30.75
67803;BME280;54601;51.378;-1.342;2023-02-15T00:06:22;101211.24;;;19.30;31.27
67803;BME280;54601;51.378;-1.342;2023-02-15T00:08:47;101205.25;;;19.78;31.23
67803;BME280;54601;51.378;-1.342;2023-02-15T00:11:14;101203.53;;;19.35;31.44
67803;BME280;54601;51.378;-1.342;2023-02-15T00:13:37;101206.17;;;19.63;31.34
67803;BME280;54601;51.378;-1.342;2023-02-15T00:16:04;101205.18;;;19.39;31.33
67803;BME280;54601;51.378;-1.342;2023-02-15T00:18:28;101205.63;;;19.56;31.15
67803;BME280;54601;51.378;-1.342;2023-02-15T00:20:53;101204.82;;;19.71;31.06
67803;BME280;54601;51.378;-1.342;2023-02-15T00:23:18;101201.81;;;19.62;31.12
67803;BME280;54601;51.378;-1.342;2023-02-15T00:25:43;101199.32;;;19.74;31.06
67803;BME280;54601;51.378;-1.342;2023-02-15T00:28:08;101194.87;;;19.71;31.07
67803;BME280;54601;51.378;-1.342;2023-02-15T00:30:33;101197.46;;;19.68;31.06
67803;BME280;54601;51.378;-1.342;2023-02-15T00:32:58;101195.78;;;19.65;31.04
67803;BME280;54601;51.378;-1.342;2023-02-15T00:35:24;101195.01;;;19.74;31.02
67803;BME280;54601;51.378;-1.342;2023-02-15T00:37:49;101193.21;;;19.64;31.11
67803;BME280;54601;51.378;-1.342;2023-02-15T00:40:14;101190.07;;;19.66;31.00
67803;BME280;54601;51.378;-1.342;2023-02-15T00:42:39;101182.07;;;19.54;31.10
67803;BME280;54601;51.378;-1.342;2023-02-15T00:45:05;101178.42;;;19.39;31.33
67803;BME280;54601;51.378;-1.342;2023-02-15T00:47:29;101174.68;;;19.52;31.25
67803;BME280;54601;51.378;-1.342;2023-02-15T00:49:54;101176.37;;;19.40;31.38
67803;BME280;54601;51.378;-1.342;2023-02-15T00:52:20;101170.26;;;19.50;31.32
67803;BME280;54601;51.378;-1.342;2023-02-15T00:54:45;101168.97;;;19.52;31.38
67803;BME280;54601;51.378;-1.342;2023-02-15T00:57:10;101166.06;;;19.70;31.51
67803;BME280;54601;51.378;-1.342;2023-02-15T00:59:35;101161.95;;;19.47;31.48
67803;BME280;54601;51.378;-1.342;2023-02-15T01:02:00;101158.53;;;19.36;31.73
67803;BME280;54601;51.378;-1.342;2023-02-15T01:04:25;101155.17;;;19.38;31.65
67803;BME280;54601;51.378;-1.342;2023-02-15T01:06:51;101151.45;;;19.65;31.64
67803;BME280;54601;51.378;-1.342;2023-02-15T01:09:16;101147.94;;;19.45;31.68
67803;BME280;54601;51.378;-1.342;2023-02-15T01:11:41;101144.19;;;19.51;31.67
67803;BME280;54601;51.378;-1.342;2023-02-15T01:14:06;101137.35;;;19.50;31.52
67803;BME280;54601;51.378;-1.342;2023-02-15T01:16:31;101127.22;;;19.53;31.43
67803;BME280;54601;51.378;-1.342;2023-02-15T01:18:57;101122.70;;;19.54;31.35
67803;BME280;54601;51.378;-1.342;2023-02-15T01:21:23;101119.60;;;19.54;31.35
67803;BME280;54601;51.378;-1.342;2023-02-15T01:23:47;101120.31;;;19.54;31.29
67803;BME280;54601;51.378;-1.342;2023-02-15T01:26:12;101122.83;;;19.56;31.21
67803;BME280;54601;51.378;-1.342;2023-02-15T01:28:37;101125.03;;;20.03;31.33
67803;BME280;54601;51.378;-1.342;2023-02-15T01:31:05;101126.48;;;19.48;31.43
67803;BME280;54601;51.378;-1.342;2023-02-15T01:33:27;101128.57;;;19.46;31.55
67803;BME280;54601;51.378;-1.342;2023-02-15T01:35:56;101129.68;;;19.55;31.37
67803;BME280;54601;51.378;-1.342;2023-02-15T01:38:17;101130.30;;;19.58;31.24
67803;BME280;54601;51.378;-1.342;2023-02-15T01:40:42;101131.44;;;19.55;31.27
67803;BME280;54601;51.378;-1.342;2023-02-15T01:43:10;101129.20;;;19.59;31.19
67803;BME280;54601;51.378;-1.342;2023-02-15T01:45:33;101125.90;;;19.56;31.20
67803;BME280;54601;51.378;-1.342;2023-02-15T01:48:01;101124.15;;;19.54;31.21
67803;BME280;54601;51.378;-1.342;2023-02-15T01:50:27;101122.69;;;19.58;31.12
67803;BME280;54601;51.378;-1.342;2023-02-15T01:52:51;101120.77;;;19.58;31.12
67803;BME280;54601;51.378;-1.342;2023-02-15T01:55:14;101118.35;;;19.58;31.08
67803;BME280;54601;51.378;-1.342;2023-02-15T01:57:39;101117.52;;;19.59;31.07
67803;BME280;54601;51.378;-1.342;2023-02-15T02:00:06;101121.31;;;19.50;31.11
67803;BME280;54601;51.378;-1.342;2023-02-15T02:02:29;101121.56;;;19.53;31.09
67803;BME280;54601;51.378;-1.342;2023-02-15T02:04:57;101118.25;;;19.61;31.03
67803;BME280;54601;51.378;-1.342;2023-02-15T02:07:21;101111.96;;;19.51;31.13
67803;BME280;54601;51.378;-1.342;2023-02-15T02:09:44;101108.45;;;19.55;31.07
67803;BME280;54601;51.378;-1.342;2023-02-15T02:12:10;101104.50;;;19.59;31.03
67803;BME280;54601;51.378;-1.342;2023-02-15T02:14:35;101100.44;;;19.55;31.11
67803;BME280;54601;51.378;-1.342;2023-02-15T02:17:07;101096.36;;;19.57;31.09
67803;BME280;54601;51.378;-1.342;2023-02-15T02:22:07;101088.15;;;19.65;31.08
67803;BME280;54601;51.378;-1.342;2023-02-15T02:29:17;101079.53;;;19.58;31.14
67803;BME280;54601;51.378;-1.342;2023-02-15T02:31:43;101080.56;;;19.62;31.10
67803;BME280;54601;51.378;-1.342;2023-02-15T02:34:01;101079.98;;;19.63;31.10
67803;BME280;54601;51.378;-1.342;2023-02-15T02:36:25;101080.82;;;19.72;30.90
67803;BME280;54601;51.378;-1.342;2023-02-15T02:38:56;101083.34;;;19.85;30.82
67803;BME280;54601;51.378;-1.342;2023-02-15T02:41:17;101077.49;;;19.57;31.13
67803;BME280;54601;51.378;-1.342;2023-02-15T02:43:42;101076.58;;;19.68;31.04
67803;BME280;54601;51.378;-1.342;2023-02-15T02:46:06;101070.87;;;19.65;31.22
67803;BME280;54601;51.378;-1.342;2023-02-15T02:48:29;101062.12;;;19.68;31.19
67803;BME280;54601;51.378;-1.342;2023-02-15T02:50:52;101062.76;;;19.56;31.37
67803;BME280;54601;51.378;-1.342;2023-02-15T02:53:17;101058.14;;;19.57;31.34
67803;BME280;54601;51.378;-1.342;2023-02-15T02:55:45;101055.38;;;19.62;31.25
67803;BME280;54601;51.378;-1.342;2023-02-15T02:58:11;101054.42;;;19.66;31.29
67803;BME280;54601;51.378;-1.342;2023-02-15T03:00:35;101052.17;;;19.66;31.49
67803;BME280;54601;51.378;-1.342;2023-02-15T03:03:02;101051.47;;;19.67;31.26
67803;BME280;54601;51.378;-1.342;2023-02-15T03:05:25;101045.18;;;19.67;31.33
67803;BME280;54601;51.378;-1.342;2023-02-15T03:07:50;101031.79;;;19.50;31.28
67803;BME280;54601;51.378;-1.342;2023-02-15T03:10:13;101026.78;;;19.72;31.28
67803;BME280;54601;51.378;-1.342;2023-02-15T03:12:39;101021.00;;;19.54;31.22
67803;BME280;54601;51.378;-1.342;2023-02-15T03:15:08;101021.81;;;19.73;31.20
67803;BME280;54601;51.378;-1.342;2023-02-15T03:17:32;101020.49;;;19.84;31.09
67803;BME280;54601;51.378;-1.342;2023-02-15T03:19:57;101019.90;;;19.82;31.16
67803;BME280;54601;51.378;-1.342;2023-02-15T03:22:23;101017.35;;;19.81;31.17
67803;BME280;54601;51.378;-1.342;2023-02-15T03:24:46;101013.75;;;19.80;31.11
67803;BME280;54601;51.378;-1.342;2023-02-15T03:27:13;101008.50;;;19.77;31.15
67803;BME280;54601;51.378;-1.342;2023-02-15T03:29:34;101007.41;;;19.78;31.23
67803;BME280;54601;51.378;-1.342;2023-02-15T03:32:00;101000.05;;;19.70;31.36
67803;BME280;54601;51.378;-1.342;2023-02-15T03:34:24;101000.55;;;19.76;31.32
67803;BME280;54601;51.378;-1.342;2023-02-15T03:36:55;100997.92;;;19.76;31.33
67803;BME280;54601;51.378;-1.342;2023-02-15T03:39:19;100994.20;;;19.51;31.43
67803;BME280;54601;51.378;-1.342;2023-02-15T03:41:44;100993.06;;;19.88;31.27
67803;BME280;54601;51.378;-1.342;2023-02-15T03:44:07;100987.50;;;20.21;30.91
67803;BME280;54601;51.378;-1.342;2023-02-15T03:46:33;100983.78;;;20.01;31.10
67803;BME280;54601;51.378;-1.342;2023-02-15T03:48:58;100980.71;;;20.04;31.10
67803;BME280;54601;51.378;-1.342;2023-02-15T03:51:23;100988.42;;;19.88;31.26
67803;BME280;54601;51.378;-1.342;2023-02-15T03:53:46;100991.10;;;19.98;31.06
67803;BME280;54601;51.378;-1.342;2023-02-15T03:56:10;100987.74;;;20.19;30.84
67803;BME280;54601;51.378;-1.342;2023-02-15T03:58:35;100989.49;;;19.92;31.25
67803;BME280;54601;51.378;-1.342;2023-02-15T04:01:05;100983.11;;;19.96;31.28
67803;BME280;54601;51.378;-1.342;2023-02-15T04:03:30;100983.44;;;19.98;31.29
67803;BME280;54601;51.378;-1.342;2023-02-15T04:05:51;100981.22;;;19.91;31.35
67803;BME280;54601;51.378;-1.342;2023-02-15T04:08:16;100974.36;;;19.95;31.36
67803;BME280;54601;51.378;-1.342;2023-02-15T04:10:41;100971.01;;;20.02;31.27
67803;BME280;54601;51.378;-1.342;2023-02-15T04:13:06;100966.86;;;19.73;31.35
67803;BME280;54601;51.378;-1.342;2023-02-15T04:15:31;100964.18;;;19.94;31.37
67803;BME280;54601;51.378;-1.342;2023-02-15T04:17:56;100965.73;;;20.08;31.25
67803;BME280;54601;51.378;-1.342;2023-02-15T04:20:21;100960.97;;;19.93;31.31
67803;BME280;54601;51.378;-1.342;2023-02-15T04:22:47;100958.56;;;20.01;31.24
67803;BME280;54601;51.378;-1.342;2023-02-15T04:25:12;100964.11;;;19.76;31.27
67803;BME280;54601;51.378;-1.342;2023-02-15T04:27:37;100963.05;;;20.05;31.15
67803;BME280;54601;51.378;-1.342;2023-02-15T04:30:02;100965.60;;;20.04;31.23
67803;BME280;54601;51.378;-1.342;2023-02-15T04:32:27;100962.38;;;20.00;31.22
67803;BME280;54601;51.378;-1.342;2023-02-15T04:34:52;100963.72;;;19.77;31.21
67803;BME280;54601;51.378;-1.342;2023-02-15T04:37:17;100961.76;;;19.88;31.11
67803;BME280;54601;51.378;-1.342;2023-02-15T04:39:42;100963.47;;;20.26;30.88
67803;BME280;54601;51.378;-1.342;2023-02-15T04:42:07;100960.07;;;20.18;31.03
67803;BME280;54601;51.378;-1.342;2023-02-15T04:44:33;100958.10;;;20.08;31.10
67803;BME280;54601;51.378;-1.342;2023-02-15T04:46:58;100959.08;;;19.85;31.13
67803;BME280;54601;51.378;-1.342;2023-02-15T04:49:23;100953.20;;;20.12;31.02
67803;BME280;54601;51.378;-1.342;2023-02-15T04:51:48;100947.65;;;19.92;31.02
67803;BME280;54601;51.378;-1.342;2023-02-15T04:54:13;100943.54;;;20.12;31.02
67803;BME280;54601;51.378;-1.342;2023-02-15T04:56:39;100943.49;;;20.28;30.84
67803;BME280;54601;51.378;-1.342;2023-02-15T04:59:03;100944.71;;;20.26;30.86
67803;BME280;54601;51.378;-1.342;2023-02-15T05:01:28;100942.70;;;19.92;30.93
67803;BME280;54601;51.378;-1.342;2023-02-15T05:03:53;100938.20;;;19.89;30.98
67803;BME280;54601;51.378;-1.342;2023-02-15T05:06:19;100934.38;;;19.85;31.06
67803;BME280;54601;51.378;-1.342;2023-02-15T05:08:44;100938.18;;;20.15;30.95
67803;BME280;54601;51.378;-1.342;2023-02-15T05:11:09;100937.80;;;20.06;31.05
67803;BME280;54601;51.378;-1.342;2023-02-15T05:13:34;100937.50;;;20.19;30.88
67803;BME280;54601;51.378;-1.342;2023-02-15T05:15:59;100934.09;;;20.20;30.84
67803;BME280;54601;51.378;-1.342;2023-02-15T05:18:24;100936.44;;;20.11;30.95
67803;BME280;54601;51.378;-1.342;2023-02-15T05:20:49;100934.07;;;20.22;30.76
67803;BME280;54601;51.378;-1.342;2023-02-15T05:23:14;100930.09;;;20.15;30.80
67803;BME280;54601;51.378;-1.342;2023-02-15T05:25:39;100924.30;;;19.90;30.86
67803;BME280;54601;51.378;-1.342;2023-02-15T05:28:07;100919.42;;;20.20;30.70
67803;BME280;54601;51.378;-1.342;2023-02-15T05:30:30;100918.98;;;20.18;30.75
67803;BME280;54601;51.378;-1.342;2023-02-15T05:32:55;100916.02;;;19.99;30.65
67803;BME280;54601;51.378;-1.342;2023-02-15T05:35:20;100914.76;;;20.29;30.50
67803;BME280;54601;51.378;-1.342;2023-02-15T05:37:45;100911.54;;;20.23;30.53
67803;BME280;54601;51.378;-1.342;2023-02-15T05:40:11;100911.90;;;19.94;30.65
67803;BME280;54601;51.378;-1.342;2023-02-15T05:42:35;100915.57;;;20.16;30.58
67803;BME280;54601;51.378;-1.342;2023-02-15T05:45:00;100914.24;;;19.92;30.61
67803;BME280;54601;51.378;-1.342;2023-02-15T05:47:25;100914.16;;;20.13;30.58
67803;BME280;54601;51.378;-1.342;2023-02-15T05:49:51;100915.34;;;20.16;30.53
67803;BME280;54601;51.378;-1.342;2023-02-15T05:52:15;100919.18;;;20.09;30.52
67803;BME280;54601;51.378;-1.342;2023-02-15T05:54:41;100918.61;;;20.11;30.49
67803;BME280;54601;51.378;-1.342;2023-02-15T05:57:06;100908.70;;;19.86;30.47
67803;BME280;54601;51.378;-1.342;2023-02-15T05:59:31;100906.05;;;20.12;30.37
67803;BME280;54601;51.378;-1.342;2023-02-15T06:01:56;100905.81;;;20.15;30.33
67803;BME280;54601;51.378;-1.342;2023-02-15T06:04:21;100901.05;;;20.08;30.42
67803;BME280;54601;51.378;-1.342;2023-02-15T06:06:46;100901.37;;;20.11;30.41
67803;BME280;54601;51.378;-1.342;2023-02-15T06:09:12;100904.92;;;20.09;30.45
67803;BME280;54601;51.378;-1.342;2023-02-15T06:11:36;100909.48;;;20.17;30.35
67803;BME280;54601;51.378;-1.342;2023-02-15T06:14:01;100912.64;;;20.20;30.25
67803;BME280;54601;51.378;-1.342;2023-02-15T06:16:26;100924.51;;;20.07;30.42
67803;BME280;54601;51.378;-1.342;2023-02-15T06:18:52;100931.98;;;20.06;30.43
67803;BME280;54601;51.378;-1.342;2023-02-15T06:21:17;100933.59;;;20.10;30.31
67803;BME280;54601;51.378;-1.342;2023-02-15T06:23:42;100936.20;;;19.87;30.37
67803;BME280;54601;51.378;-1.342;2023-02-15T06:26:07;100933.25;;;20.04;30.40
67803;BME280;54601;51.378;-1.342;2023-02-15T06:28:32;100930.86;;;20.06;30.38
67803;BME280;54601;51.378;-1.342;2023-02-15T06:30:57;100932.84;;;20.20;30.16
67803;BME280;54601;51.378;-1.342;2023-02-15T06:33:22;100937.10;;;19.85;30.38
67803;BME280;54601;51.378;-1.342;2023-02-15T06:35:47;100930.68;;;20.07;30.40
67803;BME280;54601;51.378;-1.342;2023-02-15T06:38:13;100927.16;;;19.97;30.49
67803;BME280;54601;51.378;-1.342;2023-02-15T06:40:38;100921.27;;;20.01;30.44
67803;BME280;54601;51.378;-1.342;2023-02-15T06:43:03;100921.21;;;19.79;30.45
67803;BME280;54601;51.378;-1.342;2023-02-15T06:45:28;100919.61;;;20.05;30.41
67803;BME280;54601;51.378;-1.342;2023-02-15T06:47:53;100924.60;;;19.80;30.49
67803;BME280;54601;51.378;-1.342;2023-02-15T06:50:18;100926.99;;;20.00;30.46
67803;BME280;54601;51.378;-1.342;2023-02-15T06:52:43;100936.85;;;19.77;30.51
67803;BME280;54601;51.378;-1.342;2023-02-15T06:55:08;100937.88;;;19.96;30.51
67803;BME280;54601;51.378;-1.342;2023-02-15T06:57:33;100934.81;;;20.02;30.43
67803;BME280;54601;51.378;-1.342;2023-02-15T06:59:59;100937.11;;;20.03;30.42
67803;BME280;54601;51.378;-1.342;2023-02-15T07:02:24;100934.55;;;19.99;30.45
67803;BME280;54601;51.378;-1.342;2023-02-15T07:04:49;100936.52;;;19.90;30.55
67803;BME280;54601;51.378;-1.342;2023-02-15T07:07:14;100936.38;;;19.94;30.50
67803;BME280;54601;51.378;-1.342;2023-02-15T07:09:39;100935.15;;;20.30;29.92
67803;BME280;54601;51.378;-1.342;2023-02-15T07:12:05;100937.25;;;20.00;30.41
67803;BME280;54601;51.378;-1.342;2023-02-15T07:14:29;100939.68;;;19.86;30.53
67803;BME280;54601;51.378;-1.342;2023-02-15T07:16:55;100941.58;;;19.94;30.47
67803;BME280;54601;51.378;-1.342;2023-02-15T07:19:20;100935.58;;;19.97;30.50
67803;BME280;54601;51.378;-1.342;2023-02-15T07:21:45;100932.25;;;19.92;30.53
67803;BME280;54601;51.378;-1.342;2023-02-15T07:24:10;100940.32;;;19.93;30.47
67803;BME280;54601;51.378;-1.342;2023-02-15T07:26:35;100942.63;;;20.00;30.42
67803;BME280;54601;51.378;-1.342;2023-02-15T07:29:00;100942.94;;;19.95;30.47
67803;BME280;54601;51.378;-1.342;2023-02-15T07:31:25;100943.68;;;20.08;30.35
67803;BME280;54601;51.378;-1.342;2023-02-15T07:33:51;100943.33;;;20.16;30.19
67803;BME280;54601;51.378;-1.342;2023-02-15T07:36:16;100945.84;;;20.32;29.91
67803;BME280;54601;51.378;-1.342;2023-02-15T07:38:41;100946.68;;;20.30;30.00
67803;BME280;54601;51.378;-1.342;2023-02-15T07:41:08;100947.20;;;19.98;30.44
67803;BME280;54601;51.378;-1.342;2023-02-15T07:43:33;100949.17;;;19.92;30.54
67803;BME280;54601;51.378;-1.342;2023-02-15T07:45:59;100942.39;;;19.74;30.50
67803;BME280;54601;51.378;-1.342;2023-02-15T07:48:21;100943.77;;;19.92;30.57
67803;BME280;54601;51.378;-1.342;2023-02-15T07:50:46;100937.38;;;20.27;30.15
67803;BME280;54601;51.378;-1.342;2023-02-15T07:53:11;100932.35;;;20.37;30.11
67803;BME280;54601;51.378;-1.342;2023-02-15T07:55:37;100934.61;;;20.24;30.29
67803;BME280;54601;51.378;-1.342;2023-02-15T07:58:02;100930.61;;;20.32;30.25
67803;BME280;54601;51.378;-1.342;2023-02-15T08:00:27;100930.65;;;20.33;30.31
67803;BME280;54601;51.378;-1.342;2023-02-15T08:02:54;100927.54;;;20.39;30.37
67803;BME280;54601;51.378;-1.342;2023-02-15T08:05:17;100931.13;;;20.40;30.34
67803;BME280;54601;51.378;-1.342;2023-02-15T08:07:42;100930.74;;;20.57;30.24
67803;BME280;54601;51.378;-1.342;2023-02-15T08:10:08;100929.87;;;20.14;30.45
67803;BME280;54601;51.378;-1.342;2023-02-15T08:12:33;100927.80;;;20.44;30.60
67803;BME280;54601;51.378;-1.342;2023-02-15T08:14:58;100927.96;;;20.31;30.69
67803;BME280;54601;51.378;-1.342;2023-02-15T08:17:23;100923.15;;;20.55;30.51
67803;BME280;54601;51.378;-1.342;2023-02-15T08:19:48;100915.97;;;20.58;30.52
67803;BME280;54601;51.378;-1.342;2023-02-15T08:22:14;100918.89;;;20.68;30.39
67803;BME280;54601;51.378;-1.342;2023-02-15T08:24:38;100922.78;;;20.69;30.41
67803;BME280;54601;51.378;-1.342;2023-02-15T08:27:04;100927.59;;;20.62;30.59
67803;BME280;54601;51.378;-1.342;2023-02-15T08:29:29;100929.96;;;20.64;30.52
67803;BME280;54601;51.378;-1.342;2023-02-15T08:31:55;100925.74;;;20.60;30.74
67803;BME280;54601;51.378;-1.342;2023-02-15T08:34:20;100923.09;;;20.13;31.15
67803;BME280;54601;51.378;-1.342;2023-02-15T08:36:44;100920.33;;;20.39;31.16
67803;BME280;54601;51.378;-1.342;2023-02-15T08:39:09;100914.60;;;20.55;30.70
67803;BME280;54601;51.378;-1.342;2023-02-15T08:41:35;100904.03;;;20.84;30.83
67803;BME280;54601;51.378;-1.342;2023-02-15T08:44:02;100906.46;;;20.79;30.70
67803;BME280;54601;51.378;-1.342;2023-02-15T08:46:26;100904.16;;;20.58;30.97
67803;BME280;54601;51.378;-1.342;2023-02-15T08:48:50;100902.80;;;20.21;31.83
67803;BME280;54601;51.378;-1.342;2023-02-15T08:51:16;100898.95;;;20.32;31.92
67803;BME280;54601;51.378;-1.342;2023-02-15T08:53:41;100898.53;;;20.49;31.73
67803;BME280;54601;51.378;-1.342;2023-02-15T08:56:05;100895.07;;;20.35;31.59
67803;BME280;54601;51.378;-1.342;2023-02-15T08:58:30;100895.28;;;20.66;31.54
67803;BME280;54601;51.378;-1.342;2023-02-15T09:00:55;100894.47;;;20.42;31.64
67803;BME280;54601;51.378;-1.342;2023-02-15T09:03:20;100897.59;;;20.41;31.79
67803;BME280;54601;51.378;-1.342;2023-02-15T09:05:45;100898.60;;;20.52;32.04
67803;BME280;54601;51.378;-1.342;2023-02-15T09:08:10;100905.14;;;20.28;32.44
67803;BME280;54601;51.378;-1.342;2023-02-15T09:10:35;100901.67;;;20.52;32.40
67803;BME280;54601;51.378;-1.342;2023-02-15T09:13:00;100906.46;;;20.56;32.49
67803;BME280;54601;51.378;-1.342;2023-02-15T09:15:25;100913.67;;;20.16;32.57
67803;BME280;54601;51.378;-1.342;2023-02-15T09:17:50;100908.54;;;20.54;32.61
67803;BME280;54601;51.378;-1.342;2023-02-15T09:20:15;100918.42;;;20.52;32.45
67803;BME280;54601;51.378;-1.342;2023-02-15T09:22:40;100918.38;;;20.55;32.40
67803;BME280;54601;51.378;-1.342;2023-02-15T09:25:06;100926.39;;;20.66;31.45
67803;BME280;54601;51.378;-1.342;2023-02-15T09:27:31;100925.95;;;20.89;32.01
67803;BME280;54601;51.378;-1.342;2023-02-15T09:29:56;100926.34;;;20.65;31.85
67803;BME280;54601;51.378;-1.342;2023-02-15T09:32:21;100930.05;;;20.48;31.93
67803;BME280;54601;51.378;-1.342;2023-02-15T09:34:46;100929.29;;;21.00;31.54
67803;BME280;54601;51.378;-1.342;2023-02-15T09:37:11;100923.67;;;20.86;31.96
67803;BME280;54601;51.378;-1.342;2023-02-15T09:39:37;100921.70;;;21.14;32.02
67803;BME280;54601;51.378;-1.342;2023-02-15T09:44:34;100916.81;;;20.87;32.13
67803;BME280;54601;51.378;-1.342;2023-02-15T09:47:04;100914.73;;;20.71;32.04
67803;BME280;54601;51.378;-1.342;2023-02-15T09:49:23;100920.58;;;21.31;30.85
67803;BME280;54601;51.378;-1.342;2023-02-15T09:51:54;100926.05;;;21.10;31.02
67803;BME280;54601;51.378;-1.342;2023-02-15T09:54:21;100922.61;;;20.61;31.12
67803;BME280;54601;51.378;-1.342;2023-02-15T09:56:33;100928.53;;;20.81;31.34
67803;BME280;54601;51.378;-1.342;2023-02-15T09:59:00;100927.78;;;21.10;31.18
67803;BME280;54601;51.378;-1.342;2023-02-15T10:01:27;100921.95;;;21.08;30.76
67803;BME280;54601;51.378;-1.342;2023-02-15T10:03:56;100925.98;;;21.26;30.74
67803;BME280;54601;51.378;-1.342;2023-02-15T10:06:24;100931.71;;;20.91;30.93
67803;BME280;54601;51.378;-1.342;2023-02-15T10:08:49;100931.32;;;21.07;30.93
67803;BME280;54601;51.378;-1.342;2023-02-15T10:11:08;100930.00;;;21.17;30.74
67803;BME280;54601;51.378;-1.342;2023-02-15T10:13:33;100931.48;;;20.80;30.97
67803;BME280;54601;51.378;-1.342;2023-02-15T10:16:00;100927.22;;;20.58;30.83
67803;BME280;54601;51.378;-1.342;2023-02-15T10:18:29;100916.55;;;20.58;30.82
67803;BME280;54601;51.378;-1.342;2023-02-15T10:20:49;100913.74;;;20.89;30.69
67803;BME280;54601;51.378;-1.342;2023-02-15T10:23:19;100908.77;;;20.55;30.78
67803;BME280;54601;51.378;-1.342;2023-02-15T10:25:38;100906.71;;;20.85;30.74
67803;BME280;54601;51.378;-1.342;2023-02-15T10:28:01;100912.60;;;20.67;30.59
67803;BME280;54601;51.378;-1.342;2023-02-15T10:30:27;100916.26;;;20.55;30.73
67803;BME280;54601;51.378;-1.342;2023-02-15T10:32:56;100920.57;;;20.54;30.73
67803;BME280;54601;51.378;-1.342;2023-02-15T10:35:18;100918.54;;;20.86;30.66
67803;BME280;54601;51.378;-1.342;2023-02-15T10:37:46;100918.31;;;20.55;30.64
67803;BME280;54601;51.378;-1.342;2023-02-15T10:40:08;100918.58;;;20.62;30.63
67803;BME280;54601;51.378;-1.342;2023-02-15T10:42:31;100922.00;;;20.53;30.66
67803;BME280;54601;51.378;-1.342;2023-02-15T10:45:03;100926.17;;;20.66;30.50
67803;BME280;54601;51.378;-1.342;2023-02-15T10:47:27;100933.37;;;20.67;30.54
67803;BME280;54601;51.378;-1.342;2023-02-15T10:49:55;100936.26;;;20.73;30.46
67803;BME280;54601;51.378;-1.342;2023-02-15T10:52:18;100937.06;;;20.71;30.47
67803;BME280;54601;51.378;-1.342;2023-02-15T10:54:37;100933.18;;;21.32;30.15
67803;BME280;54601;51.378;-1.342;2023-02-15T10:57:03;100926.41;;;21.09;30.27
67803;BME280;54601;51.378;-1.342;2023-02-15T10:59:36;100913.07;;;21.38;30.24
67803;BME280;54601;51.378;-1.342;2023-02-15T11:01:52;100912.55;;;20.73;30.53
67803;BME280;54601;51.378;-1.342;2023-02-15T11:06:41;100914.52;;;21.23;30.30
67803;BME280;54601;51.378;-1.342;2023-02-15T11:09:08;100919.17;;;21.30;30.25
67803;BME280;54601;51.378;-1.342;2023-02-15T11:11:32;100915.27;;;21.28;30.16
67803;BME280;54601;51.378;-1.342;2023-02-15T11:13:57;100916.06;;;21.40;30.34
67803;BME280;54601;51.378;-1.342;2023-02-15T11:16:22;100910.75;;;21.55;30.56
67803;BME280;54601;51.378;-1.342;2023-02-15T11:18:50;100909.72;;;21.58;30.42
67803;BME280;54601;51.378;-1.342;2023-02-15T11:21:17;100902.58;;;20.97;30.76
67803;BME280;54601;51.378;-1.342;2023-02-15T11:23:41;100905.22;;;21.12;30.52
67803;BME280;54601;51.378;-1.342;2023-02-15T11:26:04;100905.34;;;21.15;30.34
67803;BME280;54601;51.378;-1.342;2023-02-15T11:28:33;100910.01;;;21.32;30.22
67803;BME280;54601;51.378;-1.342;2023-02-15T11:30:56;100911.77;;;21.19;30.02
67803;BME280;54601;51.378;-1.342;2023-02-15T11:33:23;100907.56;;;21.52;29.79
67803;BME280;54601;51.378;-1.342;2023-02-15T11:35:51;100905.05;;;21.42;29.86
67803;BME280;54601;51.378;-1.342;2023-02-15T11:38:15;100904.08;;;21.40;29.92
67803;BME280;54601;51.378;-1.342;2023-02-15T11:40:44;100904.11;;;21.33;30.02
67803;BME280;54601;51.378;-1.342;2023-02-15T11:43:10;100903.99;;;21.43;29.88
67803;BME280;54601;51.378;-1.342;2023-02-15T11:45:32;100900.72;;;21.27;30.00
67803;BME280;54601;51.378;-1.342;2023-02-15T11:47:58;100898.07;;;21.34;29.92
67803;BME280;54601;51.378;-1.342;2023-02-15T11:50:24;100895.12;;;21.18;30.08
67803;BME280;54601;51.378;-1.342;2023-02-15T11:52:48;100892.18;;;21.45;29.74
67803;BME280;54601;51.378;-1.342;2023-02-15T11:55:20;100889.42;;;21.47;29.69
67803;BME280;54601;51.378;-1.342;2023-02-15T11:57:43;100892.83;;;21.54;29.63
67803;BME280;54601;51.378;-1.342;2023-02-15T12:00:12;100887.00;;;21.47;29.73
67803;BME280;54601;51.378;-1.342;2023-02-15T12:02:33;100883.79;;;21.38;29.77
67803;BME280;54601;51.378;-1.342;2023-02-15T12:05:01;100879.11;;;21.40;29.72
67803;BME280;54601;51.378;-1.342;2023-02-15T12:07:28;100873.22;;;21.38;29.69
67803;BME280;54601;51.378;-1.342;2023-02-15T12:09:56;100873.50;;;21.32;29.83
67803;BME280;54601;51.378;-1.342;2023-02-15T12:12:26;100871.32;;;21.55;29.76
67803;BME280;54601;51.378;-1.342;2023-02-15T12:14:47;100862.57;;;21.44;29.61
67803;BME280;54601;51.378;-1.342;2023-02-15T12:17:13;100858.14;;;21.43;29.64
67803;BME280;54601;51.378;-1.342;2023-02-15T12:19:37;100864.37;;;21.29;29.54
67803;BME280;54601;51.378;-1.342;2023-02-15T12:22:01;100866.43;;;21.47;29.60
67803;BME280;54601;51.378;-1.342;2023-02-15T12:24:27;100867.46;;;21.33;29.77
67803;BME280;54601;51.378;-1.342;2023-02-15T12:26:56;100872.54;;;21.50;29.56
67803;BME280;54601;51.378;-1.342;2023-02-15T12:29:17;100871.05;;;21.53;29.44
67803;BME280;54601;51.378;-1.342;2023-02-15T12:31:44;100872.87;;;21.35;29.67
67803;BME280;54601;51.378;-1.342;2023-02-15T12:34:11;100865.59;;;21.44;29.57
67803;BME280;54601;51.378;-1.342;2023-02-15T12:36:41;100861.18;;;21.42;29.57
67803;BME280;54601;51.378;-1.342;2023-02-15T12:39:05;100862.78;;;21.11;29.65
67803;BME280;54601;51.378;-1.342;2023-02-15T12:41:26;100866.05;;;21.28;29.73